createdAt,value
2019-01-11T00:00:01.314Z,0.30
2019-01-11T00:02:31.393Z,0.30
2019-01-11T00:05:01.371Z,0.30
2019-01-11T00:07:31.378Z,0.30
2019-01-11T00:10:01.477Z,0.40
2019-01-11T00:12:31.517Z,0.40
2019-01-11T00:15:01.720Z,0.40
2019-01-11T00:17:31.654Z,0.40
2019-01-11T00:20:03.763Z,0.30
2019-01-11T00:22:33.701Z,0.30
2019-01-11T00:25:04.355Z,0.20
2019-01-11T00:27:34.367Z,0.20
2019-01-11T00:30:05.949Z,0.20
2019-01-11T00:32:36.406Z,0.10
2019-01-11T00:35:12.611Z,0.00
2019-01-11T00:37:42.923Z,0.00
2019-01-11T00:40:13.827Z,0.00
2019-01-11T00:42:44.261Z,0.00
2019-01-11T00:45:14.736Z,0.10
2019-01-11T00:47:44.815Z,0.10
2019-01-11T00:50:15.229Z,0.10
2019-01-11T00:52:45.221Z,0.20
2019-01-11T00:55:15.295Z,0.20
2019-01-11T00:57:45.546Z,0.20
2019-01-11T01:00:18.479Z,0.20
2019-01-11T01:02:48.833Z,0.30
2019-01-11T01:05:19.456Z,0.30
2019-01-11T01:07:50.350Z,0.40
2019-01-11T01:10:21.427Z,0.40
2019-01-11T01:12:51.473Z,0.50
2019-01-11T01:15:21.670Z,0.50
2019-01-11T01:17:52.309Z,0.50
2019-01-11T01:20:22.777Z,0.50
2019-01-11T01:22:52.651Z,0.50
2019-01-11T01:25:22.666Z,0.50
2019-01-11T01:27:52.683Z,0.60
2019-01-11T01:30:22.807Z,0.60
2019-01-11T01:32:53.370Z,0.50
2019-01-11T01:35:23.972Z,0.50
2019-01-11T01:37:54.707Z,0.60
2019-01-11T01:40:24.798Z,0.50
2019-01-11T01:42:55.655Z,0.50
2019-01-11T01:45:25.817Z,0.50
2019-01-11T01:47:55.942Z,0.60
2019-01-11T01:50:26.297Z,0.60
2019-01-11T01:52:56.456Z,0.60
2019-01-11T01:55:27.011Z,0.60
2019-01-11T01:57:57.865Z,0.60
2019-01-11T02:00:28.872Z,0.50
2019-01-11T02:02:59.006Z,0.50
2019-01-11T02:05:29.341Z,0.50
2019-01-11T02:07:59.484Z,0.50
2019-01-11T02:10:30.188Z,0.40
2019-01-11T02:13:00.195Z,0.40
2019-01-11T02:15:30.836Z,0.40
2019-01-11T02:18:00.712Z,0.40
2019-01-11T02:20:31.022Z,0.40
2019-01-11T02:23:01.124Z,0.40
2019-01-11T02:25:31.171Z,0.40
2019-01-11T02:28:01.693Z,0.40
2019-01-11T02:30:31.651Z,0.40
2019-01-11T02:33:01.673Z,0.40
2019-01-11T02:35:31.949Z,0.40
2019-01-11T02:38:02.347Z,0.40
2019-01-11T02:40:32.693Z,0.40
2019-01-11T02:43:03.048Z,0.30
2019-01-11T02:45:35.109Z,0.40
2019-01-11T02:48:05.645Z,0.40
2019-01-11T02:50:37.246Z,0.40
2019-01-11T02:53:07.291Z,0.40
2019-01-11T02:55:38.095Z,0.40
2019-01-11T02:58:08.366Z,0.50
2019-01-11T03:00:40.712Z,0.50
2019-01-11T03:03:12.131Z,0.50
2019-01-11T03:05:42.283Z,0.50
2019-01-11T03:08:12.505Z,0.50
2019-01-11T03:10:43.724Z,0.50
2019-01-11T03:13:13.872Z,0.50
2019-01-11T03:15:44.751Z,0.50
2019-01-11T03:18:14.824Z,0.50
2019-01-11T03:20:45.132Z,0.50
2019-01-11T03:23:15.116Z,0.40
2019-01-11T03:25:45.598Z,0.40
2019-01-11T03:28:15.512Z,0.40
2019-01-11T03:30:46.103Z,0.40
2019-01-11T03:33:22.330Z,0.40
2019-01-11T03:35:52.347Z,0.40
2019-01-11T03:38:22.447Z,0.40
2019-01-11T03:40:53.646Z,0.50
2019-01-11T03:43:23.904Z,0.50
2019-01-11T03:45:55.215Z,0.50
2019-01-11T03:48:25.322Z,0.60
2019-01-11T03:50:56.081Z,0.60
2019-01-11T03:53:26.612Z,0.70
2019-01-11T03:55:59.348Z,0.70
2019-01-11T03:58:29.628Z,0.70
2019-01-11T04:01:00.616Z,0.70
2019-01-11T04:03:31.012Z,0.70
2019-01-11T04:06:01.636Z,0.70
2019-01-11T04:08:31.596Z,0.70
2019-01-11T04:11:01.956Z,0.70
2019-01-11T04:13:32.009Z,0.80
2019-01-11T04:16:02.944Z,0.70
2019-01-11T04:18:34.541Z,0.70
2019-01-11T04:21:04.971Z,0.70
2019-01-11T04:23:35.341Z,0.80
2019-01-11T04:26:06.777Z,0.80
2019-01-11T04:28:36.783Z,0.80
2019-01-11T04:31:07.418Z,0.70
2019-01-11T04:33:37.431Z,0.70
2019-01-11T04:36:08.201Z,0.70
2019-01-11T04:38:38.350Z,0.70
2019-01-11T04:41:09.464Z,0.70
2019-01-11T04:43:39.733Z,0.70
2019-01-11T04:46:11.593Z,0.70
2019-01-11T04:48:41.490Z,0.70
2019-01-11T04:51:12.446Z,0.70
2019-01-11T04:53:42.689Z,0.70
2019-01-11T04:56:13.030Z,0.70
2019-01-11T04:58:43.161Z,0.70
2019-01-11T05:01:13.748Z,0.70
2019-01-11T05:03:43.742Z,0.80
2019-01-11T05:06:14.882Z,0.80
2019-01-11T05:08:44.972Z,0.80
2019-01-11T05:11:15.539Z,0.80
2019-01-11T05:13:50.751Z,0.80
2019-01-11T05:16:23.156Z,0.80
2019-01-11T05:18:53.309Z,0.80
2019-01-11T05:21:23.412Z,0.80
2019-01-11T05:23:53.843Z,0.80
2019-01-11T05:26:24.610Z,0.80
2019-01-11T05:28:54.751Z,0.80
2019-01-11T05:31:24.663Z,0.80
2019-01-11T05:33:54.759Z,0.80
2019-01-11T05:36:24.754Z,0.80
2019-01-11T05:38:55.029Z,0.80
2019-01-11T05:41:25.104Z,0.80
2019-01-11T05:43:55.195Z,0.80
2019-01-11T05:46:25.322Z,0.80
2019-01-11T05:48:55.425Z,0.80
2019-01-11T05:51:25.467Z,0.80
2019-01-11T05:53:55.570Z,0.80
2019-01-11T05:56:25.832Z,0.80
2019-01-11T05:59:04.845Z,0.80
2019-01-11T06:01:34.920Z,0.80
2019-01-11T06:04:24.779Z,0.80
2019-01-11T06:07:12.973Z,0.80
2019-01-11T06:09:44.652Z,0.80
2019-01-11T06:12:14.542Z,0.80
2019-01-11T06:14:44.661Z,0.80
2019-01-11T06:17:15.089Z,0.80
2019-01-11T06:19:45.186Z,0.80
2019-01-11T06:22:15.908Z,0.80
2019-01-11T06:24:46.155Z,0.80
2019-01-11T06:27:16.602Z,0.80
2019-01-11T06:29:46.657Z,0.80
2019-01-11T06:32:16.664Z,0.80
2019-01-11T06:34:46.697Z,0.80
2019-01-11T06:37:16.857Z,0.80
2019-01-11T06:39:46.805Z,0.80
2019-01-11T06:42:26.793Z,0.80
2019-01-11T06:44:57.882Z,0.80
2019-01-11T06:47:28.114Z,0.90
2019-01-11T06:49:58.288Z,0.90
2019-01-11T06:52:28.508Z,0.90
2019-01-11T06:54:58.604Z,0.90
2019-01-11T06:57:28.959Z,0.90
2019-01-11T06:59:59.161Z,0.80
2019-01-11T07:02:29.569Z,0.90
2019-01-11T07:05:00.314Z,0.90
2019-01-11T07:07:30.988Z,0.80
2019-01-11T07:10:01.316Z,0.90
2019-01-11T07:12:31.814Z,0.90
2019-01-11T07:15:03.291Z,0.90
2019-01-11T07:17:34.297Z,0.90
2019-01-11T07:20:06.034Z,0.90
2019-01-11T07:22:36.519Z,0.90
2019-01-11T07:25:07.233Z,0.90
2019-01-11T07:27:43.316Z,0.90
2019-01-11T07:30:14.256Z,0.90
2019-01-11T07:32:44.785Z,0.90
2019-01-11T07:35:15.379Z,0.90
2019-01-11T07:37:46.164Z,0.90
2019-01-11T07:40:16.663Z,0.90
2019-01-11T07:42:47.216Z,0.90
2019-01-11T07:45:17.788Z,0.90
2019-01-11T07:47:48.127Z,0.90
2019-01-11T07:50:18.565Z,0.90
2019-01-11T07:52:49.060Z,0.90
2019-01-11T07:55:19.884Z,1.00
2019-01-11T07:57:50.109Z,1.00
2019-01-11T08:00:20.258Z,1.00
2019-01-11T08:02:50.527Z,1.00
2019-01-11T08:05:20.921Z,1.00
2019-01-11T08:07:51.406Z,1.00
2019-01-11T08:10:21.804Z,1.00
2019-01-11T08:12:52.276Z,1.00
2019-01-11T08:15:22.763Z,1.00
2019-01-11T08:17:55.654Z,1.00
2019-01-11T08:20:26.048Z,1.00
2019-01-11T08:22:56.284Z,1.00
2019-01-11T08:25:26.415Z,1.00
2019-01-11T08:27:56.647Z,1.00
2019-01-11T08:30:27.747Z,1.00
2019-01-11T08:32:57.823Z,1.00
2019-01-11T08:35:29.124Z,1.10
2019-01-11T08:37:59.458Z,1.00
2019-01-11T08:40:29.718Z,1.00
2019-01-11T08:42:59.797Z,1.00
2019-01-11T08:45:30.005Z,1.00
2019-01-11T08:48:00.155Z,1.00
2019-01-11T08:50:30.716Z,1.00
2019-01-11T08:53:01.207Z,1.10
2019-01-11T08:55:31.532Z,1.10
2019-01-11T08:58:01.764Z,1.10
2019-01-11T09:00:32.119Z,1.10
2019-01-11T09:03:02.609Z,1.10
2019-01-11T09:05:33.223Z,1.20
2019-01-11T09:08:04.739Z,1.20
2019-01-11T09:10:35.101Z,1.20
2019-01-11T09:13:05.200Z,1.10
2019-01-11T09:15:36.640Z,1.20
2019-01-11T09:18:13.991Z,1.20
2019-01-11T09:20:44.109Z,1.20
2019-01-11T09:23:14.530Z,1.20
2019-01-11T09:25:45.943Z,1.30
2019-01-11T09:28:16.083Z,1.30
2019-01-11T09:30:46.889Z,1.30
2019-01-11T09:33:20.657Z,1.30
2019-01-11T09:35:48.943Z,1.40
2019-01-11T09:38:20.875Z,1.40
2019-01-11T09:40:51.189Z,1.40
2019-01-11T09:43:24.557Z,1.50
2019-01-11T09:45:54.638Z,1.50
2019-01-11T09:48:24.646Z,1.50
2019-01-11T09:50:54.887Z,1.60
2019-01-11T09:53:25.033Z,1.70
2019-01-11T09:55:55.545Z,1.80
2019-01-11T09:58:26.621Z,1.80
2019-01-11T10:00:59.216Z,1.90
2019-01-11T10:03:28.516Z,1.90
2019-01-11T10:06:03.308Z,2.00
2019-01-11T10:08:33.764Z,2.10
2019-01-11T10:11:06.489Z,2.10
2019-01-11T10:13:36.743Z,2.10
2019-01-11T10:16:07.126Z,2.10
2019-01-11T10:18:37.665Z,2.10
2019-01-11T10:21:08.125Z,2.10
2019-01-11T10:23:38.418Z,2.00
2019-01-11T10:26:09.128Z,2.00
2019-01-11T10:28:39.419Z,1.90
2019-01-11T10:31:09.694Z,1.90
2019-01-11T10:33:40.010Z,1.90
2019-01-11T10:36:10.483Z,1.90
2019-01-11T10:38:41.913Z,1.90
2019-01-11T10:41:12.291Z,1.90
2019-01-11T10:43:42.581Z,1.90
2019-01-11T10:46:32.673Z,1.90
2019-01-11T10:49:02.812Z,1.90
2019-01-11T10:51:32.939Z,1.90
2019-01-11T10:54:03.273Z,1.90
2019-01-11T10:56:34.077Z,1.90
2019-01-11T10:59:04.716Z,1.90
2019-01-11T11:01:34.701Z,1.90
2019-01-11T11:04:05.083Z,2.00
2019-01-11T11:06:35.598Z,2.00
2019-01-11T11:09:07.855Z,2.00
2019-01-11T11:11:38.677Z,2.00
2019-01-11T11:14:09.094Z,2.00
2019-01-11T11:16:39.608Z,2.00
2019-01-11T11:19:10.455Z,2.10
2019-01-11T11:21:41.361Z,2.00
2019-01-11T11:24:12.139Z,2.00
2019-01-11T11:26:43.152Z,2.10
2019-01-11T11:29:13.728Z,2.10
2019-01-11T11:31:44.495Z,2.20
2019-01-11T11:34:14.936Z,2.20
2019-01-11T11:36:45.280Z,2.30
2019-01-11T11:39:16.067Z,2.20
2019-01-11T11:41:46.596Z,2.20
2019-01-11T11:44:17.323Z,2.30
2019-01-11T11:46:47.738Z,2.30
2019-01-11T11:49:18.043Z,2.30
2019-01-11T11:51:48.721Z,2.30
2019-01-11T11:54:19.781Z,2.30
2019-01-11T11:56:50.231Z,2.30
2019-01-11T11:59:20.310Z,2.40
2019-01-11T12:01:52.431Z,2.30
2019-01-11T12:04:23.268Z,2.30
2019-01-11T12:06:54.052Z,2.30
2019-01-11T12:09:24.710Z,2.30
2019-01-11T12:11:55.067Z,2.30
2019-01-11T12:14:25.490Z,2.30
2019-01-11T12:16:55.856Z,2.40
2019-01-11T12:19:26.040Z,2.40
2019-01-11T12:22:01.593Z,2.40
2019-01-11T12:24:28.510Z,2.40
2019-01-11T12:26:58.569Z,2.40
2019-01-11T12:29:28.947Z,2.40
2019-01-11T12:31:59.217Z,2.50
2019-01-11T12:34:29.601Z,2.50
2019-01-11T12:37:00.225Z,2.50
2019-01-11T12:39:30.805Z,2.60
2019-01-11T12:42:01.184Z,2.60
2019-01-11T12:44:31.725Z,2.60
2019-01-11T12:47:01.716Z,2.60
2019-01-11T12:49:31.934Z,2.60
2019-01-11T12:52:02.119Z,2.70
2019-01-11T12:54:32.574Z,2.70
2019-01-11T12:57:03.459Z,2.70
2019-01-11T12:59:33.773Z,2.70
2019-01-11T13:02:04.468Z,2.70
2019-01-11T13:04:34.658Z,2.70
2019-01-11T13:07:05.173Z,2.80
2019-01-11T13:09:35.775Z,2.80
2019-01-11T13:12:06.590Z,2.80
2019-01-11T13:14:36.770Z,2.90
2019-01-11T13:17:07.037Z,2.90
2019-01-11T13:19:37.479Z,2.90
2019-01-11T13:22:08.219Z,2.90
2019-01-11T13:24:38.309Z,2.80
2019-01-11T13:27:09.286Z,2.90
2019-01-11T13:29:39.674Z,2.90
2019-01-11T13:32:11.001Z,2.90
2019-01-11T13:34:41.793Z,3.00
2019-01-11T13:37:12.202Z,3.00
2019-01-11T13:39:42.339Z,3.00
2019-01-11T13:42:13.007Z,3.10
2019-01-11T13:44:43.395Z,3.00
2019-01-11T13:47:14.662Z,3.00
2019-01-11T13:49:45.404Z,3.10
2019-01-11T13:52:16.616Z,3.10
2019-01-11T13:54:46.998Z,3.10
2019-01-11T13:57:18.645Z,3.20
2019-01-11T13:59:48.908Z,3.20
2019-01-11T14:02:19.359Z,3.20
2019-01-11T14:04:50.412Z,3.20
2019-01-11T14:07:21.591Z,3.30
2019-01-11T14:09:52.186Z,3.30
2019-01-11T14:12:30.932Z,3.30
2019-01-11T14:15:01.413Z,3.30
2019-01-11T14:17:32.023Z,3.30
2019-01-11T14:20:02.194Z,3.20
2019-01-11T14:22:32.733Z,3.30
2019-01-11T14:25:02.760Z,3.20
2019-01-11T14:27:34.359Z,3.20
2019-01-11T14:30:06.454Z,3.20
2019-01-11T14:32:36.848Z,3.20
2019-01-11T14:35:08.668Z,3.30
2019-01-11T14:37:39.352Z,3.30
2019-01-11T14:40:11.658Z,3.20
2019-01-11T14:42:44.861Z,3.20
2019-01-11T14:45:16.339Z,3.20
2019-01-11T14:47:46.404Z,3.20
2019-01-11T14:50:18.257Z,3.20
2019-01-11T14:52:48.458Z,3.20
2019-01-11T14:55:18.551Z,3.20
2019-01-11T14:57:49.268Z,3.10
2019-01-11T15:00:23.886Z,3.00
2019-01-11T15:02:54.052Z,3.10
2019-01-11T15:05:24.562Z,3.10
2019-01-11T15:07:54.913Z,3.10
2019-01-11T15:10:25.010Z,3.10
2019-01-11T15:12:55.272Z,3.10
2019-01-11T15:15:26.727Z,3.10
2019-01-11T15:17:56.720Z,3.00
2019-01-11T15:20:26.943Z,3.00
2019-01-11T15:22:57.186Z,3.00
2019-01-11T15:25:27.287Z,3.00
2019-01-11T15:27:58.129Z,3.00
2019-01-11T15:30:28.643Z,2.90
2019-01-11T15:32:59.113Z,2.90
2019-01-11T15:35:29.193Z,2.90
2019-01-11T15:37:59.247Z,2.90
2019-01-11T15:40:36.465Z,3.00
2019-01-11T15:43:03.041Z,3.00
2019-01-11T15:45:33.261Z,3.00
2019-01-11T15:48:05.005Z,3.10
2019-01-11T15:51:03.593Z,3.10
2019-01-11T15:53:39.729Z,3.20
2019-01-11T15:56:12.691Z,3.30
2019-01-11T15:58:42.759Z,3.40
2019-01-11T16:01:12.745Z,3.50
2019-01-11T16:03:43.162Z,3.50
2019-01-11T16:06:23.605Z,3.60
2019-01-11T16:09:55.660Z,3.60
2019-01-11T16:12:32.389Z,3.60
2019-01-11T16:15:51.646Z,3.60
2019-01-11T16:18:28.196Z,3.60
2019-01-11T16:20:58.980Z,3.60
2019-01-11T16:23:29.382Z,3.70
2019-01-11T16:26:01.376Z,3.70
2019-01-11T16:28:31.531Z,3.60
2019-01-11T16:31:01.658Z,3.60
2019-01-11T16:33:31.669Z,3.50
2019-01-11T16:36:01.677Z,3.50
2019-01-11T16:38:31.527Z,3.50
2019-01-11T16:41:01.800Z,3.50
2019-01-11T16:43:31.781Z,3.50
2019-01-11T16:46:02.444Z,3.50
2019-01-11T16:48:33.865Z,3.50
2019-01-11T16:51:04.017Z,3.50
2019-01-11T16:53:34.469Z,3.50
2019-01-11T16:56:05.273Z,3.60
2019-01-11T16:58:35.504Z,3.50
2019-01-11T17:01:06.123Z,3.60
2019-01-11T17:03:36.599Z,3.50
2019-01-11T17:06:07.326Z,3.50
2019-01-11T17:08:37.355Z,3.50
2019-01-11T17:11:07.525Z,3.50
2019-01-11T17:13:40.660Z,3.60
2019-01-11T17:16:09.505Z,3.50
2019-01-11T17:18:39.863Z,3.60
2019-01-11T17:21:10.677Z,3.60
2019-01-11T17:23:40.846Z,3.60
2019-01-11T17:26:10.809Z,3.60
2019-01-11T17:28:40.865Z,3.60
2019-01-11T17:31:10.759Z,3.60
2019-01-11T17:33:42.173Z,3.60
2019-01-11T17:36:12.051Z,3.70
2019-01-11T17:38:42.150Z,3.70
2019-01-11T17:41:12.281Z,3.70
2019-01-11T17:43:42.509Z,3.70
2019-01-11T17:46:12.661Z,3.70
2019-01-11T17:48:42.806Z,3.60
2019-01-11T17:51:13.404Z,3.70
2019-01-11T17:53:43.495Z,3.60
2019-01-11T17:56:13.880Z,3.70
2019-01-11T17:58:44.087Z,3.70
2019-01-11T18:01:14.194Z,3.70
2019-01-11T18:03:44.703Z,3.70
2019-01-11T18:06:14.817Z,3.70
2019-01-11T18:08:45.041Z,3.70
2019-01-11T18:11:15.247Z,3.70
2019-01-11T18:13:45.853Z,3.80
2019-01-11T18:16:17.473Z,3.80
2019-01-11T18:18:47.967Z,3.80
2019-01-11T18:21:18.785Z,3.90
2019-01-11T18:23:48.838Z,3.90
2019-01-11T18:26:19.093Z,4.00
2019-01-11T18:28:49.397Z,4.00
2019-01-11T18:31:19.558Z,4.00
2019-01-11T18:33:49.839Z,4.00
2019-01-11T18:36:20.066Z,4.10
2019-01-11T18:38:50.983Z,4.10
2019-01-11T18:41:21.254Z,4.10
2019-01-11T18:43:51.674Z,4.10
2019-01-11T18:46:22.769Z,4.10
2019-01-11T18:48:53.131Z,4.20
2019-01-11T18:51:24.133Z,4.10
2019-01-11T18:53:57.954Z,4.10
2019-01-11T18:56:28.591Z,4.10
2019-01-11T18:58:59.254Z,4.20
2019-01-11T19:01:30.078Z,4.20
2019-01-11T19:04:00.625Z,4.20
2019-01-11T19:06:30.884Z,4.20
2019-01-11T19:09:01.119Z,4.20
2019-01-11T19:11:31.800Z,4.20
2019-01-11T19:14:03.170Z,4.20
2019-01-11T19:16:33.766Z,4.20
2019-01-11T19:19:04.130Z,4.20
2019-01-11T19:21:34.279Z,4.20
2019-01-11T19:24:05.686Z,4.20
2019-01-11T19:26:35.999Z,4.20
2019-01-11T19:29:06.510Z,4.30
2019-01-11T19:31:36.760Z,4.30
2019-01-11T19:34:06.928Z,4.30
2019-01-11T19:36:37.237Z,4.30
2019-01-11T19:39:08.326Z,4.30
2019-01-11T19:41:38.839Z,4.30
2019-01-11T19:44:10.157Z,4.30
2019-01-11T19:46:40.731Z,4.30
2019-01-11T19:49:12.981Z,4.30
2019-01-11T19:51:43.359Z,4.40
2019-01-11T19:54:14.121Z,4.40
2019-01-11T19:56:44.462Z,4.40
2019-01-11T19:59:16.896Z,4.40
2019-01-11T20:01:47.511Z,4.40
2019-01-11T20:04:18.469Z,4.40
2019-01-11T20:06:49.007Z,4.40
2019-01-11T20:09:20.133Z,4.50
2019-01-11T20:11:51.505Z,4.50
2019-01-11T20:14:22.563Z,4.50
2019-01-11T20:16:53.144Z,4.50
2019-01-11T20:19:23.785Z,4.60
2019-01-11T20:21:54.670Z,4.60
2019-01-11T20:24:25.446Z,4.60
2019-01-11T20:26:55.727Z,4.60
2019-01-11T20:29:26.327Z,4.60
2019-01-11T20:31:56.448Z,4.60
2019-01-11T20:34:27.242Z,4.60
2019-01-11T20:37:04.954Z,4.60
2019-01-11T20:39:35.735Z,4.60
2019-01-11T20:42:06.223Z,4.60
2019-01-11T20:44:37.600Z,4.60
2019-01-11T20:47:07.965Z,4.70
2019-01-11T20:49:38.613Z,4.70
2019-01-11T20:52:09.157Z,4.70
2019-01-11T20:54:39.386Z,4.70
2019-01-11T20:57:09.950Z,4.80
2019-01-11T20:59:41.108Z,4.80
2019-01-11T21:02:11.312Z,4.70
2019-01-11T21:04:43.272Z,4.80
2019-01-11T21:07:13.550Z,4.70
2019-01-11T21:09:47.112Z,4.70
2019-01-11T21:12:19.438Z,4.70
2019-01-11T21:14:49.720Z,4.80
2019-01-11T21:17:20.430Z,4.70
2019-01-11T21:19:50.922Z,4.80
2019-01-11T21:22:21.332Z,4.80
2019-01-11T21:24:51.803Z,4.80
2019-01-11T21:27:23.387Z,4.80
2019-01-11T21:29:54.206Z,4.80
2019-01-11T21:32:24.750Z,4.70
2019-01-11T21:34:55.039Z,4.50
2019-01-11T21:37:25.227Z,4.30
2019-01-11T21:39:57.085Z,4.20
2019-01-11T21:42:27.375Z,4.00
2019-01-11T21:44:57.600Z,3.90
2019-01-11T21:47:28.295Z,3.80
2019-01-11T21:49:58.517Z,3.70
2019-01-11T21:52:28.522Z,3.60
2019-01-11T21:54:58.598Z,3.60
2019-01-11T21:57:28.820Z,3.50
2019-01-11T21:59:59.400Z,3.40
2019-01-11T22:02:29.659Z,3.40
2019-01-11T22:05:00.340Z,3.30
2019-01-11T22:07:30.880Z,3.30
2019-01-11T22:10:01.803Z,3.30
2019-01-11T22:12:32.338Z,3.20
2019-01-11T22:15:02.659Z,3.20
2019-01-11T22:17:35.452Z,3.20
2019-01-11T22:20:08.363Z,3.10
2019-01-11T22:22:38.855Z,3.10
2019-01-11T22:25:10.518Z,3.10
2019-01-11T22:27:43.860Z,3.10
2019-01-11T22:30:19.406Z,3.10
2019-01-11T22:32:49.563Z,3.10
2019-01-11T22:35:19.728Z,3.10
2019-01-11T22:37:50.025Z,3.10
2019-01-11T22:40:22.128Z,3.10
2019-01-11T22:42:57.562Z,3.10
2019-01-11T22:45:28.376Z,3.00
2019-01-11T22:47:58.673Z,3.00
2019-01-11T22:50:28.952Z,3.00
2019-01-11T22:52:59.032Z,3.00
2019-01-11T22:55:29.490Z,3.00
2019-01-11T22:57:59.642Z,3.00
2019-01-11T23:00:48.875Z,3.00
2019-01-11T23:03:45.608Z,3.00
2019-01-11T23:07:02.124Z,3.00
2019-01-11T23:09:41.480Z,3.00
2019-01-11T23:12:31.201Z,3.00
2019-01-11T23:15:01.986Z,3.00
2019-01-11T23:17:39.775Z,3.10
2019-01-11T23:20:12.859Z,3.10
2019-01-11T23:22:44.898Z,3.00
2019-01-11T23:25:16.527Z,3.00
2019-01-11T23:27:46.536Z,2.80
2019-01-11T23:30:19.865Z,2.70
2019-01-11T23:32:52.635Z,2.50
2019-01-11T23:35:22.965Z,2.40
2019-01-11T23:37:53.204Z,2.40
2019-01-11T23:40:23.470Z,2.50
2019-01-11T23:42:53.799Z,2.50
2019-01-11T23:45:23.858Z,2.60
2019-01-11T23:47:55.780Z,2.70
2019-01-11T23:50:26.276Z,2.60
2019-01-11T23:52:56.364Z,2.50
2019-01-11T23:55:26.709Z,2.50
2019-01-11T23:57:56.941Z,2.60
